ADDS METAR Data

Data at: 0748 UTC 24 Oct 2017

METAR for:KWST (Westerly State Arpt, RI, US)
Text:KWST 240735Z AUTO 14011G20KT 3SM -RA BR FEW012 BKN025 OVC044 19/18 A3004 RMK AO2 P0019 T01940183
Temperature: 19.4°C ( 67°F)
Dewpoint: 18.3°C ( 65°F) [RH = 93%]
Pressure (altimeter):30.04 inches Hg (1017.4 mb)
Winds:from the SE (140 degrees) at 13 MPH (11 knots; 5.7 m/s) gusting to 23 MPH (20 knots; 10.3 m/s)
Visibility: 3 sm ( 5 km)
Ceiling:2500 feet AGL
Clouds: few clouds at 1200 feet AGL, broken clouds at 2500 feet AGL, overcast cloud deck at 4400 feet AGL
Weather:-RA BR (light rain, mist)
QC Flag:automated observation with no human augmentation